createdAt,value
2017-12-25T00:01:25.207Z,87.90
2017-12-25T00:03:52.110Z,87.80
2017-12-25T00:06:18.955Z,87.60
2017-12-25T00:08:45.818Z,87.60
2017-12-25T00:11:12.654Z,87.30
2017-12-25T00:13:39.558Z,87.30
2017-12-25T00:16:06.398Z,87.30
2017-12-25T00:18:33.226Z,87.60
2017-12-25T00:21:00.099Z,87.60
2017-12-25T00:23:26.970Z,87.80
2017-12-25T00:25:54.606Z,87.90
2017-12-25T00:28:22.209Z,88.40
2017-12-25T00:30:49.094Z,87.90
2017-12-25T00:33:15.944Z,87.50
2017-12-25T00:35:43.540Z,87.40
2017-12-25T00:38:10.390Z,87.30
2017-12-25T00:40:37.265Z,87.20
2017-12-25T00:43:04.107Z,87.50
2017-12-25T00:45:30.988Z,87.00
2017-12-25T00:47:58.603Z,87.10
2017-12-25T00:50:25.522Z,87.10
2017-12-25T00:52:53.106Z,86.80
2017-12-25T00:55:19.933Z,86.80
2017-12-25T00:57:46.799Z,86.60
2017-12-25T01:00:13.666Z,86.70
2017-12-25T01:02:40.525Z,86.50
2017-12-25T01:05:07.394Z,86.30
2017-12-25T01:07:34.250Z,86.40
2017-12-25T01:10:01.075Z,87.50
2017-12-25T01:12:28.714Z,87.40
2017-12-25T01:14:55.568Z,87.30
2017-12-25T01:17:22.407Z,87.20
2017-12-25T01:19:49.255Z,86.90
2017-12-25T01:22:16.876Z,87.20
2017-12-25T01:24:43.702Z,87.20
2017-12-25T01:27:10.573Z,87.40
2017-12-25T01:29:37.425Z,87.00
2017-12-25T01:32:04.251Z,86.60
2017-12-25T01:34:31.102Z,86.80
2017-12-25T01:36:57.934Z,86.50
2017-12-25T01:39:24.753Z,86.40
2017-12-25T01:41:51.630Z,86.10
2017-12-25T01:44:18.487Z,86.50
2017-12-25T01:46:57.600Z,86.50
2017-12-25T01:49:24.425Z,86.40
2017-12-25T01:51:51.306Z,86.60
2017-12-25T01:54:18.266Z,86.60
2017-12-25T01:56:45.908Z,88.20
2017-12-25T01:59:13.779Z,88.20
2017-12-25T02:01:46.760Z,88.20
2017-12-25T02:04:15.501Z,88.30
2017-12-25T02:09:39.462Z,88.10
2017-12-25T02:12:07.123Z,87.80
2017-12-25T02:14:34.766Z,87.30
2017-12-25T02:17:01.638Z,87.40
2017-12-25T02:19:28.496Z,87.60
2017-12-25T02:21:56.509Z,87.40
2017-12-25T02:24:23.362Z,87.40
2017-12-25T02:26:50.238Z,87.10
2017-12-25T02:29:17.890Z,86.90
2017-12-25T02:31:44.767Z,86.90
2017-12-25T02:34:11.638Z,87.00
2017-12-25T02:36:38.546Z,87.50
2017-12-25T02:39:05.686Z,88.00
2017-12-25T02:41:32.563Z,87.70
2017-12-25T02:43:59.434Z,87.60
2017-12-25T02:46:26.274Z,87.30
2017-12-25T02:48:53.118Z,87.30
2017-12-25T02:51:19.984Z,87.20
2017-12-25T02:53:46.862Z,87.60
2017-12-25T02:56:13.730Z,87.70
2017-12-25T02:58:40.594Z,88.00
2017-12-25T03:01:07.442Z,87.90
2017-12-25T03:03:34.323Z,88.80
2017-12-25T03:06:01.275Z,87.80
2017-12-25T03:08:28.106Z,88.00
2017-12-25T03:10:55.748Z,88.00
2017-12-25T03:13:22.666Z,87.90
2017-12-25T03:15:49.554Z,87.80
2017-12-25T03:18:16.458Z,87.50
2017-12-25T03:20:43.310Z,87.50
2017-12-25T03:23:10.142Z,87.50
2017-12-25T03:25:37.049Z,87.30
2017-12-25T03:28:03.916Z,87.50
2017-12-25T03:30:30.826Z,87.20
2017-12-25T03:32:57.698Z,87.20
2017-12-25T03:35:24.565Z,86.70
2017-12-25T03:37:51.454Z,86.50
2017-12-25T03:40:18.317Z,87.20
2017-12-25T03:42:45.163Z,87.30
2017-12-25T03:45:12.051Z,87.50
2017-12-25T03:47:38.894Z,87.60
2017-12-25T03:50:05.777Z,87.40
2017-12-25T03:52:32.669Z,86.70
2017-12-25T03:54:59.478Z,87.00
2017-12-25T03:57:26.355Z,86.60
2017-12-25T03:59:53.212Z,86.80
2017-12-25T04:02:20.055Z,86.50
2017-12-25T04:04:47.682Z,86.30
2017-12-25T04:07:14.535Z,86.10
2017-12-25T04:09:41.401Z,86.10
2017-12-25T04:12:08.294Z,86.10
2017-12-25T04:14:35.173Z,86.30
2017-12-25T04:17:02.046Z,86.20
2017-12-25T04:19:28.923Z,86.30
2017-12-25T04:21:55.846Z,86.50
2017-12-25T04:24:22.713Z,86.90
2017-12-25T04:26:49.538Z,86.50
2017-12-25T04:29:16.418Z,86.20
2017-12-25T04:31:44.275Z,85.40
2017-12-25T04:34:11.152Z,86.00
2017-12-25T04:36:38.027Z,86.10
2017-12-25T04:39:04.889Z,86.30
2017-12-25T04:41:31.757Z,86.20
2017-12-25T04:43:58.630Z,86.40
2017-12-25T04:46:26.254Z,86.60
2017-12-25T04:48:53.098Z,86.60
2017-12-25T04:51:21.062Z,86.10
2017-12-25T04:53:47.878Z,86.20
2017-12-25T04:56:14.720Z,86.50
2017-12-25T04:58:41.591Z,86.40
2017-12-25T05:01:08.447Z,86.50
2017-12-25T05:03:35.306Z,86.60
2017-12-25T05:06:02.159Z,87.30
2017-12-25T05:08:29.048Z,86.60
2017-12-25T05:10:57.686Z,86.70
2017-12-25T05:13:24.575Z,86.60
2017-12-25T05:15:51.534Z,86.90
2017-12-25T05:18:18.386Z,86.70
2017-12-25T05:20:45.275Z,87.10
2017-12-25T05:23:12.877Z,87.70
2017-12-25T05:25:39.722Z,87.70
2017-12-25T05:28:06.601Z,87.80
2017-12-25T05:30:33.495Z,88.10
2017-12-25T05:33:00.323Z,88.00
2017-12-25T05:35:27.173Z,87.90
2017-12-25T05:37:54.077Z,88.20
2017-12-25T05:40:20.942Z,88.30
2017-12-25T05:42:48.786Z,88.10
2017-12-25T05:45:15.653Z,88.00
2017-12-25T05:47:42.528Z,87.90
2017-12-25T05:50:09.363Z,88.00
2017-12-25T05:52:36.227Z,87.90
2017-12-25T05:55:03.102Z,87.90
2017-12-25T05:57:29.954Z,87.50
2017-12-25T05:59:56.885Z,87.20
2017-12-25T06:02:23.742Z,87.30
2017-12-25T06:04:50.620Z,87.80
2017-12-25T06:07:17.491Z,87.80
2017-12-25T06:09:44.333Z,88.70
2017-12-25T06:12:11.208Z,88.70
2017-12-25T06:14:38.126Z,89.20
2017-12-25T06:17:05.790Z,89.10
2017-12-25T06:19:32.699Z,89.00
2017-12-25T06:21:59.622Z,88.90
2017-12-25T06:24:26.486Z,88.90
2017-12-25T06:26:54.328Z,88.60
2017-12-25T06:29:21.939Z,88.90
2017-12-25T06:31:48.843Z,88.90
2017-12-25T06:34:16.422Z,89.00
2017-12-25T06:36:43.270Z,89.00
2017-12-25T06:39:10.155Z,89.40
2017-12-25T06:41:37.006Z,90.00
2017-12-25T06:44:03.859Z,89.80
2017-12-25T06:46:30.714Z,89.90
2017-12-25T06:48:57.550Z,90.00
2017-12-25T06:51:26.364Z,90.10
2017-12-25T06:53:53.246Z,90.50
2017-12-25T06:56:20.116Z,90.20
2017-12-25T06:58:47.211Z,90.00
2017-12-25T07:01:14.091Z,89.80
2017-12-25T07:03:41.392Z,89.60
2017-12-25T07:06:09.011Z,88.90
2017-12-25T07:08:36.613Z,89.20
2017-12-25T07:11:04.202Z,89.40
2017-12-25T07:13:31.047Z,89.40
2017-12-25T07:15:57.922Z,89.30
2017-12-25T07:18:24.734Z,89.20
2017-12-25T07:20:51.605Z,89.20
2017-12-25T07:23:18.492Z,89.10
2017-12-25T07:25:45.347Z,89.20
2017-12-25T07:28:12.214Z,89.50
2017-12-25T07:30:39.121Z,89.80
2017-12-25T07:33:06.048Z,89.70
2017-12-25T07:35:32.979Z,89.80
2017-12-25T07:37:59.870Z,89.80
2017-12-25T07:40:28.183Z,90.00
2017-12-25T07:42:55.639Z,89.70
2017-12-25T07:45:22.487Z,89.40
2017-12-25T07:47:49.379Z,89.00
2017-12-25T07:50:16.251Z,88.80
2017-12-25T07:52:43.127Z,88.80
2017-12-25T07:55:10.004Z,88.70
2017-12-25T07:57:36.867Z,88.90
2017-12-25T08:00:03.713Z,88.60
2017-12-25T08:02:31.364Z,88.80
2017-12-25T08:04:58.271Z,88.80
2017-12-25T08:07:25.426Z,88.70
2017-12-25T08:09:52.336Z,89.00
2017-12-25T08:12:19.194Z,88.90
2017-12-25T08:14:46.078Z,88.60
2017-12-25T08:17:13.647Z,89.00
2017-12-25T08:19:40.490Z,88.90
2017-12-25T08:22:07.355Z,89.00
2017-12-25T08:24:34.164Z,89.00
2017-12-25T08:27:01.023Z,89.30
2017-12-25T08:29:27.871Z,89.30
2017-12-25T08:31:54.823Z,89.20
2017-12-25T08:34:21.679Z,89.10
2017-12-25T08:36:48.790Z,89.50
2017-12-25T08:39:15.766Z,89.80
2017-12-25T08:41:42.704Z,89.70
2017-12-25T08:44:09.615Z,89.60
2017-12-25T08:46:37.195Z,89.50
2017-12-25T08:49:04.368Z,89.40
2017-12-25T08:51:31.323Z,89.50
2017-12-25T08:53:59.187Z,89.60
2017-12-25T08:56:26.228Z,89.70
2017-12-25T08:58:53.103Z,90.00
2017-12-25T09:01:19.982Z,90.00
2017-12-25T09:03:47.591Z,90.10
2017-12-25T09:06:14.497Z,90.10
2017-12-25T09:08:42.199Z,90.30
2017-12-25T09:11:09.274Z,90.50
2017-12-25T09:13:37.059Z,90.50
2017-12-25T09:16:04.704Z,90.20
2017-12-25T09:18:31.572Z,90.10
2017-12-25T09:20:58.492Z,90.00
2017-12-25T09:23:26.147Z,89.60
2017-12-25T09:25:53.031Z,88.80
2017-12-25T09:28:19.878Z,88.10
2017-12-25T09:30:46.755Z,87.90
2017-12-25T09:33:13.625Z,86.90
2017-12-25T09:35:40.487Z,86.60
2017-12-25T09:38:07.351Z,85.20
2017-12-25T09:40:34.512Z,84.60
2017-12-25T09:43:02.195Z,84.30
2017-12-25T09:45:29.050Z,84.20
2017-12-25T09:47:56.939Z,83.50
2017-12-25T09:50:23.851Z,83.50
2017-12-25T09:52:50.879Z,83.50
2017-12-25T09:55:17.740Z,83.10
2017-12-25T09:57:44.560Z,82.30
2017-12-25T10:00:11.648Z,81.40
2017-12-25T10:02:38.564Z,81.60
2017-12-25T10:05:05.464Z,80.90
2017-12-25T10:07:33.478Z,79.70
2017-12-25T10:10:01.422Z,79.90
2017-12-25T10:12:28.511Z,79.90
2017-12-25T10:14:55.583Z,78.90
2017-12-25T10:17:23.187Z,76.90
2017-12-25T10:19:50.145Z,76.80
2017-12-25T10:22:17.267Z,76.30
2017-12-25T10:24:44.210Z,74.40
2017-12-25T10:27:11.135Z,73.10
2017-12-25T10:29:38.038Z,70.90
2017-12-25T10:32:04.898Z,66.00
2017-12-25T10:34:31.742Z,63.40
2017-12-25T10:36:58.763Z,59.00
2017-12-25T10:39:25.740Z,56.70
2017-12-25T10:41:53.385Z,53.60
2017-12-25T10:44:20.442Z,53.60
2017-12-25T10:46:47.421Z,53.20
2017-12-25T10:49:16.154Z,52.90
2017-12-25T10:51:43.179Z,52.80
2017-12-25T10:54:10.094Z,51.40
2017-12-25T10:56:36.938Z,52.90
2017-12-25T10:59:04.947Z,51.40
2017-12-25T11:01:32.076Z,51.30
2017-12-25T11:03:58.975Z,50.30
2017-12-25T11:06:26.019Z,48.90
2017-12-25T11:08:53.051Z,47.90
2017-12-25T11:11:20.780Z,45.80
2017-12-25T11:13:47.875Z,45.60
2017-12-25T11:16:14.793Z,42.90
2017-12-25T11:18:42.428Z,42.70
2017-12-25T11:21:09.403Z,42.20
2017-12-25T11:23:36.330Z,41.30
2017-12-25T11:26:03.377Z,41.00
2017-12-25T11:28:30.395Z,40.20
2017-12-25T11:30:58.015Z,40.60
2017-12-25T11:33:24.923Z,40.50
2017-12-25T11:35:51.827Z,40.10
2017-12-25T11:38:18.670Z,39.70
2017-12-25T11:40:46.550Z,38.60
2017-12-25T11:43:13.527Z,38.50
2017-12-25T11:45:40.634Z,38.00
2017-12-25T11:48:07.552Z,36.90
2017-12-25T11:50:34.386Z,35.90
2017-12-25T11:53:01.238Z,36.70
2017-12-25T11:55:28.459Z,35.30
2017-12-25T11:57:55.359Z,36.30
2017-12-25T12:00:23.145Z,35.70
2017-12-25T12:02:50.898Z,34.20
2017-12-25T12:05:17.983Z,34.20
2017-12-25T12:07:45.690Z,34.30
2017-12-25T12:10:12.543Z,34.20
2017-12-25T12:12:40.163Z,32.50
2017-12-25T12:15:07.288Z,32.40
2017-12-25T12:17:34.326Z,30.90
2017-12-25T12:20:01.899Z,31.30
2017-12-25T12:22:28.779Z,31.30
2017-12-25T12:24:55.635Z,31.20
2017-12-25T12:27:23.261Z,29.50
2017-12-25T12:29:50.090Z,29.50
2017-12-25T12:32:16.935Z,29.50
2017-12-25T12:34:43.778Z,30.40
2017-12-25T12:37:10.696Z,31.80
2017-12-25T12:39:38.282Z,31.00
2017-12-25T12:42:05.170Z,31.00
2017-12-25T12:44:32.044Z,31.10
2017-12-25T12:46:59.199Z,31.40
2017-12-25T12:49:26.074Z,32.80
2017-12-25T12:51:52.964Z,33.30
2017-12-25T12:54:20.754Z,38.60
2017-12-25T12:56:47.761Z,38.50
2017-12-25T12:59:14.913Z,41.40
2017-12-25T13:01:42.045Z,43.50
2017-12-25T13:04:09.114Z,43.10
2017-12-25T13:06:37.067Z,43.90
2017-12-25T13:09:03.943Z,44.40
2017-12-25T13:11:30.826Z,44.80
2017-12-25T13:13:57.851Z,42.50
2017-12-25T13:16:25.783Z,38.60
2017-12-25T13:18:53.426Z,37.30
2017-12-25T13:21:20.586Z,37.00
2017-12-25T13:23:48.566Z,37.30
2017-12-25T13:26:15.399Z,36.60
2017-12-25T13:28:43.210Z,37.60
2017-12-25T13:31:10.511Z,37.50
2017-12-25T13:33:37.370Z,36.70
2017-12-25T13:36:04.347Z,35.60
2017-12-25T13:38:31.198Z,35.70
2017-12-25T13:40:58.238Z,36.30
2017-12-25T13:43:25.422Z,37.00
2017-12-25T13:45:52.690Z,38.60
2017-12-25T13:48:20.486Z,41.30
2017-12-25T13:50:48.371Z,44.40
2017-12-25T13:53:15.446Z,44.40
2017-12-25T13:55:42.406Z,47.10
2017-12-25T13:58:09.455Z,50.10
2017-12-25T14:00:36.546Z,51.00
2017-12-25T14:03:03.486Z,52.70
2017-12-25T14:05:30.715Z,54.50
2017-12-25T14:07:57.694Z,55.80
2017-12-25T14:10:24.711Z,56.80
2017-12-25T14:12:51.720Z,58.10
2017-12-25T14:15:19.387Z,60.90
2017-12-25T14:17:54.295Z,60.50
2017-12-25T14:36:54.882Z,64.50
2017-12-25T14:39:21.772Z,65.60
2017-12-25T14:41:48.858Z,66.30
2017-12-25T14:44:15.718Z,66.90
2017-12-25T14:46:42.611Z,68.00
2017-12-25T14:49:09.783Z,68.80
2017-12-25T14:51:36.753Z,69.00
2017-12-25T14:54:03.615Z,69.40
2017-12-25T14:56:30.638Z,69.80
2017-12-25T14:58:57.623Z,70.30
2017-12-25T15:01:25.218Z,71.30
2017-12-25T15:03:52.470Z,71.20
2017-12-25T15:06:19.479Z,71.60
2017-12-25T15:08:46.490Z,72.20
2017-12-25T15:11:13.483Z,72.60
2017-12-25T15:13:40.457Z,73.00
2017-12-25T15:16:07.515Z,73.60
2017-12-25T15:18:34.584Z,73.90
2017-12-25T15:21:02.218Z,75.00
2017-12-25T15:23:29.302Z,75.00
2017-12-25T15:25:57.104Z,75.90
2017-12-25T15:28:24.843Z,76.40
2017-12-25T15:30:51.806Z,76.40
2017-12-25T15:33:19.613Z,77.30
2017-12-25T15:35:46.609Z,77.20
2017-12-25T15:38:13.507Z,77.60
2017-12-25T15:40:40.643Z,78.50
2017-12-25T15:43:07.721Z,79.00
2017-12-25T15:45:35.474Z,79.70
2017-12-25T15:48:02.408Z,79.70
2017-12-25T15:50:29.603Z,79.80
2017-12-25T15:52:56.626Z,80.20
2017-12-25T15:55:23.539Z,80.00
2017-12-25T15:57:50.432Z,80.30
2017-12-25T16:00:18.082Z,81.20
2017-12-25T16:02:45.192Z,81.20
2017-12-25T16:05:12.189Z,81.80
2017-12-25T16:07:39.155Z,82.80
2017-12-25T16:10:06.883Z,83.40
2017-12-25T16:12:33.991Z,83.40
2017-12-25T16:15:01.607Z,83.60
2017-12-25T16:17:29.360Z,83.80
2017-12-25T16:19:56.603Z,84.30
2017-12-25T16:22:23.522Z,84.00
2017-12-25T16:24:50.490Z,84.10
2017-12-25T16:27:17.639Z,83.40
2017-12-25T16:29:44.600Z,83.20
2017-12-25T16:32:11.716Z,83.50
2017-12-25T16:34:38.606Z,84.00
2017-12-25T16:37:05.476Z,84.00
2017-12-25T16:39:33.598Z,84.30
2017-12-25T16:42:03.815Z,84.10
2017-12-25T16:44:31.551Z,83.70
2017-12-25T16:46:58.528Z,83.70
2017-12-25T16:49:26.372Z,83.50
2017-12-25T16:51:54.247Z,83.70
2017-12-25T16:54:21.247Z,83.50
2017-12-25T16:56:48.834Z,84.10
2017-12-25T16:59:15.843Z,84.10
2017-12-25T17:01:42.868Z,84.70
2017-12-25T17:04:09.774Z,84.60
2017-12-25T17:06:37.599Z,84.10
2017-12-25T17:09:05.505Z,84.30
2017-12-25T17:11:32.822Z,84.30
2017-12-25T17:14:10.972Z,85.00
2017-12-25T17:31:37.559Z,86.50
2017-12-25T17:34:04.479Z,87.00
2017-12-25T17:36:48.415Z,86.80
2017-12-25T17:39:39.688Z,86.90
2017-12-25T17:42:07.392Z,86.90
2017-12-25T17:44:34.368Z,86.90
2017-12-25T17:47:02.174Z,86.80
2017-12-25T17:49:29.867Z,86.70
2017-12-25T17:51:56.735Z,86.40
2017-12-25T17:54:23.627Z,86.70
2017-12-25T17:56:50.782Z,87.00
2017-12-25T17:59:17.878Z,87.00
2017-12-25T18:01:44.738Z,86.80
2017-12-25T18:04:11.923Z,87.30
2017-12-25T18:06:39.899Z,88.30
2017-12-25T18:09:06.754Z,88.30
2017-12-25T18:11:33.990Z,88.40
2017-12-25T18:14:02.045Z,88.10
2017-12-25T18:16:29.335Z,87.70
2017-12-25T18:18:56.315Z,87.70
2017-12-25T18:21:24.226Z,87.80
2017-12-25T18:23:52.087Z,87.40
2017-12-25T18:26:19.039Z,87.60
2017-12-25T18:28:48.078Z,88.50
2017-12-25T18:31:16.026Z,88.40
2017-12-25T18:33:42.989Z,88.30
2017-12-25T18:36:10.546Z,88.50
2017-12-25T18:38:37.535Z,88.40
2017-12-25T18:41:05.182Z,88.40
2017-12-25T18:43:33.079Z,89.10
2017-12-25T18:46:00.938Z,88.60
2017-12-25T18:48:27.952Z,88.60
2017-12-25T18:50:55.651Z,88.50
2017-12-25T18:53:22.728Z,88.40
2017-12-25T18:55:49.788Z,88.90
2017-12-25T18:58:17.531Z,88.60
2017-12-25T19:00:45.239Z,88.60
2017-12-25T19:03:12.842Z,88.30
2017-12-25T19:05:39.699Z,88.20
2017-12-25T19:08:06.722Z,89.00
2017-12-25T19:10:33.660Z,89.10
2017-12-25T19:13:01.437Z,89.90
2017-12-25T19:15:28.398Z,89.90
2017-12-25T19:17:55.287Z,89.00
2017-12-25T19:20:22.902Z,87.60
2017-12-25T19:22:49.808Z,87.50
2017-12-25T19:25:16.965Z,88.50
2017-12-25T19:27:43.863Z,88.50
2017-12-25T19:30:11.746Z,88.40
2017-12-25T19:32:38.650Z,88.30
2017-12-25T19:35:05.499Z,88.70
2017-12-25T19:37:32.654Z,89.00
2017-12-25T19:39:59.555Z,89.10
2017-12-25T19:42:26.612Z,89.80
2017-12-25T19:44:54.414Z,88.70
2017-12-25T19:47:21.326Z,88.60
2017-12-25T19:49:49.340Z,87.90
2017-12-25T19:52:17.682Z,87.90
2017-12-25T19:54:44.711Z,87.80
2017-12-25T19:57:11.779Z,87.60
2017-12-25T19:59:39.398Z,87.90
2017-12-25T20:02:06.403Z,88.10
2017-12-25T20:04:33.379Z,88.70
2017-12-25T20:07:00.415Z,88.20
2017-12-25T20:09:27.546Z,88.70
2017-12-25T20:11:54.456Z,88.60
2017-12-25T20:14:22.151Z,89.60
2017-12-25T20:16:49.190Z,89.60
2017-12-25T20:19:20.067Z,88.90
2017-12-25T20:21:48.020Z,88.80
2017-12-25T20:24:15.016Z,88.40
2017-12-25T20:26:42.099Z,88.20
2017-12-25T20:29:09.030Z,87.60
2017-12-25T20:31:35.995Z,87.60
2017-12-25T20:34:28.079Z,87.90
2017-12-25T20:37:24.160Z,88.20
2017-12-25T20:39:51.332Z,88.20
2017-12-25T20:42:19.402Z,88.90
2017-12-25T20:44:47.111Z,88.60
2017-12-25T20:47:14.164Z,88.60
2017-12-25T20:49:50.193Z,88.40
2017-12-25T20:52:17.175Z,88.70
2017-12-25T20:54:44.129Z,88.30
2017-12-25T20:57:11.899Z,88.00
2017-12-25T20:59:38.798Z,87.90
2017-12-25T21:02:05.811Z,87.50
2017-12-25T21:04:39.251Z,87.20
2017-12-25T21:20:36.002Z,87.80
2017-12-25T21:23:03.579Z,87.80
2017-12-25T21:25:31.719Z,87.80
2017-12-25T21:27:59.263Z,88.30
2017-12-25T21:30:26.251Z,88.50
2017-12-25T21:32:53.290Z,87.80
2017-12-25T21:35:20.259Z,87.60
2017-12-25T21:37:47.190Z,87.30
2017-12-25T21:40:15.549Z,86.90
2017-12-25T21:42:42.587Z,87.80
2017-12-25T21:45:09.503Z,87.70
2017-12-25T21:47:36.458Z,87.70
2017-12-25T21:50:03.356Z,88.20
2017-12-25T21:52:30.370Z,87.70
2017-12-25T21:54:57.363Z,87.10
2017-12-25T21:57:24.302Z,87.00
2017-12-25T21:59:51.391Z,86.50
2017-12-25T22:02:18.456Z,86.80
2017-12-25T22:04:45.579Z,88.00
2017-12-25T22:07:12.479Z,87.10
2017-12-25T22:09:39.669Z,87.30
2017-12-25T22:12:06.743Z,86.30
2017-12-25T22:14:33.634Z,86.90
2017-12-25T22:17:00.721Z,87.10
2017-12-25T22:19:27.706Z,86.80
2017-12-25T22:21:54.757Z,86.40
2017-12-25T22:24:21.706Z,85.60
2017-12-25T22:26:50.036Z,86.50
2017-12-25T22:29:17.051Z,86.50
2017-12-25T22:31:44.118Z,86.90
2017-12-25T22:34:11.131Z,85.80
2017-12-25T22:36:40.011Z,86.40
2017-12-25T22:39:07.103Z,86.30
2017-12-25T22:41:34.114Z,86.70
2017-12-25T22:44:01.132Z,87.40
2017-12-25T22:46:28.041Z,86.60
2017-12-25T22:48:55.259Z,85.90
2017-12-25T22:51:22.270Z,86.00
2017-12-25T22:53:49.127Z,86.20
2017-12-25T22:56:16.266Z,87.00
2017-12-25T22:58:43.347Z,86.40
2017-12-25T23:01:10.802Z,85.70
2017-12-25T23:03:37.708Z,85.50
2017-12-25T23:06:04.522Z,85.80
2017-12-25T23:08:32.572Z,86.00
2017-12-25T23:11:02.463Z,86.00
2017-12-25T23:13:29.519Z,85.50
2017-12-25T23:15:56.742Z,85.70
2017-12-25T23:18:23.827Z,85.70
2017-12-25T23:20:50.782Z,86.10
2017-12-25T23:23:18.023Z,86.10
2017-12-25T23:25:45.242Z,86.30
2017-12-25T23:28:13.429Z,85.80
2017-12-25T23:30:40.586Z,85.80
2017-12-25T23:33:07.584Z,85.80
2017-12-25T23:35:35.487Z,86.10
2017-12-25T23:38:04.103Z,86.40
2017-12-25T23:40:31.210Z,86.40
2017-12-25T23:42:58.288Z,86.00
2017-12-25T23:45:25.334Z,85.60
2017-12-25T23:47:53.278Z,86.30
2017-12-25T23:50:21.307Z,85.70
2017-12-25T23:52:48.257Z,85.70
2017-12-25T23:55:16.274Z,86.00
2017-12-25T23:57:43.471Z,85.80
